Terminal Aerodrome Forecast
Issued by NWS

Home | Current Version | Previous Version | Text Only | Print | Product List | Glossary On
Versions: 1 2 3 4 5 6 7 8 9 10 11 12 13 14 15 16 17 18 19 20 21 22 23 24 25 26 27 28 29 30 31 32 33
135
FTUS41 KOKX 280100 AAA
TAFHPN
TAF AMD
KHPN 280100Z 2801/2824 13006KT 1SM -DZ BR OVC005
     FM280300 VRB02KT 1/2SM -DZ FG OVC004
     FM280500 VRB02KT 1/4SM -DZ FG VV002
     FM281400 29004KT 3SM BR BKN007 OVC015
     FM281600 29008KT P6SM SCT010 BKN040
     FM282100 19009KT P6SM SCT060 SCT250
      AMD NOT SKED=

USA.gov is the U.S. government's official web portal to all federal, state and local government web resources and services.